sensor_id;sensor_type;location;lat;lon;timestamp;temperature;humidity
52555;DHT22;38455;52.710;6.502;2023-04-09T00:01:05;9.40;99.90
52555;DHT22;38455;52.710;6.502;2023-04-09T00:03:31;9.30;99.90
52555;DHT22;38455;52.710;6.502;2023-04-09T00:05:57;9.30;99.90
52555;DHT22;38455;52.710;6.502;2023-04-09T00:08:22;9.30;99.90
52555;DHT22;38455;52.710;6.502;2023-04-09T00:10:49;9.30;99.90
52555;DHT22;38455;52.710;6.502;2023-04-09T00:13:15;9.30;99.90
52555;DHT22;38455;52.710;6.502;2023-04-09T00:15:43;9.40;99.90
52555;DHT22;38455;52.710;6.502;2023-04-09T00:18:09;9.40;99.90
52555;DHT22;38455;52.710;6.502;2023-04-09T00:20:35;9.30;99.90
52555;DHT22;38455;52.710;6.502;2023-04-09T00:23:01;9.40;99.90
52555;DHT22;38455;52.710;6.502;2023-04-09T00:25:26;9.30;99.90
52555;DHT22;38455;52.710;6.502;2023-04-09T00:27:53;9.20;99.90
52555;DHT22;38455;52.710;6.502;2023-04-09T00:30:20;9.30;99.90
52555;DHT22;38455;52.710;6.502;2023-04-09T00:32:46;9.30;99.90
52555;DHT22;38455;52.710;6.502;2023-04-09T00:35:11;9.20;99.90
52555;DHT22;38455;52.710;6.502;2023-04-09T00:37:37;9.20;99.90
52555;DHT22;38455;52.710;6.502;2023-04-09T00:40:03;9.20;99.90
52555;DHT22;38455;52.710;6.502;2023-04-09T00:42:33;9.10;99.90
52555;DHT22;38455;52.710;6.502;2023-04-09T00:44:59;9.10;99.90
52555;DHT22;38455;52.710;6.502;2023-04-09T00:47:26;9.00;99.90
52555;DHT22;38455;52.710;6.502;2023-04-09T00:49:55;8.90;99.90
52555;DHT22;38455;52.710;6.502;2023-04-09T00:52:22;9.00;99.90
52555;DHT22;38455;52.710;6.502;2023-04-09T00:54:49;8.90;99.90
52555;DHT22;38455;52.710;6.502;2023-04-09T00:57:15;9.00;99.90
52555;DHT22;38455;52.710;6.502;2023-04-09T00:59:45;9.00;99.90
52555;DHT22;38455;52.710;6.502;2023-04-09T01:02:11;9.00;99.90
52555;DHT22;38455;52.710;6.502;2023-04-09T01:04:37;8.90;99.90
52555;DHT22;38455;52.710;6.502;2023-04-09T01:09:45;8.90;99.90
52555;DHT22;38455;52.710;6.502;2023-04-09T01:12:20;9.00;99.90
52555;DHT22;38455;52.710;6.502;2023-04-09T01:15:04;9.00;99.90
52555;DHT22;38455;52.710;6.502;2023-04-09T01:17:34;9.00;99.90
52555;DHT22;38455;52.710;6.502;2023-04-09T01:22:39;8.90;99.90
52555;DHT22;38455;52.710;6.502;2023-04-09T01:30:25;8.90;99.90
52555;DHT22;38455;52.710;6.502;2023-04-09T01:32:52;8.90;99.90
52555;DHT22;38455;52.710;6.502;2023-04-09T01:35:19;8.90;99.90
52555;DHT22;38455;52.710;6.502;2023-04-09T01:37:45;8.90;99.90
52555;DHT22;38455;52.710;6.502;2023-04-09T01:40:12;8.80;99.90
52555;DHT22;38455;52.710;6.502;2023-04-09T01:42:38;8.90;99.90
52555;DHT22;38455;52.710;6.502;2023-04-09T01:45:05;8.80;99.90
52555;DHT22;38455;52.710;6.502;2023-04-09T01:47:31;8.80;99.90
52555;DHT22;38455;52.710;6.502;2023-04-09T01:49:57;8.80;99.90
52555;DHT22;38455;52.710;6.502;2023-04-09T01:52:23;8.80;99.90
52555;DHT22;38455;52.710;6.502;2023-04-09T01:54:49;8.80;99.90
52555;DHT22;38455;52.710;6.502;2023-04-09T01:57:15;8.80;99.90
52555;DHT22;38455;52.710;6.502;2023-04-09T01:59:40;8.80;99.90
52555;DHT22;38455;52.710;6.502;2023-04-09T02:02:13;8.90;99.90
52555;DHT22;38455;52.710;6.502;2023-04-09T02:04:46;8.90;99.90
52555;DHT22;38455;52.710;6.502;2023-04-09T02:07:35;8.80;99.90
52555;DHT22;38455;52.710;6.502;2023-04-09T02:10:02;8.80;99.90
52555;DHT22;38455;52.710;6.502;2023-04-09T02:12:30;8.80;99.90
52555;DHT22;38455;52.710;6.502;2023-04-09T02:14:58;8.70;99.90
52555;DHT22;38455;52.710;6.502;2023-04-09T02:17:25;8.70;99.90
52555;DHT22;38455;52.710;6.502;2023-04-09T02:19:51;8.70;99.90
52555;DHT22;38455;52.710;6.502;2023-04-09T02:22:17;8.70;99.90
52555;DHT22;38455;52.710;6.502;2023-04-09T02:24:43;8.70;99.90
52555;DHT22;38455;52.710;6.502;2023-04-09T02:27:08;8.70;99.90
52555;DHT22;38455;52.710;6.502;2023-04-09T02:29:34;8.70;99.90
52555;DHT22;38455;52.710;6.502;2023-04-09T02:32:00;8.60;99.90
52555;DHT22;38455;52.710;6.502;2023-04-09T02:34:26;8.70;99.90
52555;DHT22;38455;52.710;6.502;2023-04-09T02:36:52;8.60;99.90
52555;DHT22;38455;52.710;6.502;2023-04-09T02:39:17;8.60;99.90
52555;DHT22;38455;52.710;6.502;2023-04-09T02:41:43;8.60;99.90
52555;DHT22;38455;52.710;6.502;2023-04-09T02:44:09;8.60;99.90
52555;DHT22;38455;52.710;6.502;2023-04-09T02:46:34;8.60;99.90
52555;DHT22;38455;52.710;6.502;2023-04-09T02:49:00;8.70;99.90
52555;DHT22;38455;52.710;6.502;2023-04-09T02:51:26;8.70;99.90
52555;DHT22;38455;52.710;6.502;2023-04-09T02:53:52;8.60;99.90
52555;DHT22;38455;52.710;6.502;2023-04-09T02:56:17;8.70;99.90
52555;DHT22;38455;52.710;6.502;2023-04-09T02:58:43;8.70;99.90
52555;DHT22;38455;52.710;6.502;2023-04-09T03:01:09;8.70;99.90
52555;DHT22;38455;52.710;6.502;2023-04-09T03:03:34;8.70;99.90
52555;DHT22;38455;52.710;6.502;2023-04-09T03:06:01;8.70;99.90
52555;DHT22;38455;52.710;6.502;2023-04-09T03:08:27;8.70;99.90
52555;DHT22;38455;52.710;6.502;2023-04-09T03:10:53;8.70;99.90
52555;DHT22;38455;52.710;6.502;2023-04-09T03:13:18;8.60;99.90
52555;DHT22;38455;52.710;6.502;2023-04-09T03:15:44;8.60;99.90
52555;DHT22;38455;52.710;6.502;2023-04-09T03:18:10;8.60;99.90
52555;DHT22;38455;52.710;6.502;2023-04-09T03:20:38;8.60;99.90
52555;DHT22;38455;52.710;6.502;2023-04-09T03:23:04;8.60;99.90
52555;DHT22;38455;52.710;6.502;2023-04-09T03:25:29;8.50;99.90
52555;DHT22;38455;52.710;6.502;2023-04-09T03:27:55;8.50;99.90
52555;DHT22;38455;52.710;6.502;2023-04-09T03:30:20;8.50;99.90
52555;DHT22;38455;52.710;6.502;2023-04-09T03:32:46;8.50;99.90
52555;DHT22;38455;52.710;6.502;2023-04-09T03:35:12;8.50;99.90
52555;DHT22;38455;52.710;6.502;2023-04-09T03:37:37;8.50;99.90
52555;DHT22;38455;52.710;6.502;2023-04-09T03:40:03;8.50;99.90
52555;DHT22;38455;52.710;6.502;2023-04-09T03:42:30;8.50;99.90
52555;DHT22;38455;52.710;6.502;2023-04-09T03:44:55;8.50;99.90
52555;DHT22;38455;52.710;6.502;2023-04-09T03:47:21;8.50;99.90
52555;DHT22;38455;52.710;6.502;2023-04-09T03:49:46;8.50;99.90
52555;DHT22;38455;52.710;6.502;2023-04-09T03:52:12;8.50;99.90
52555;DHT22;38455;52.710;6.502;2023-04-09T03:54:38;8.50;99.90
52555;DHT22;38455;52.710;6.502;2023-04-09T03:57:03;8.60;99.90
52555;DHT22;38455;52.710;6.502;2023-04-09T03:59:29;8.50;99.90
52555;DHT22;38455;52.710;6.502;2023-04-09T04:01:55;8.50;99.90
52555;DHT22;38455;52.710;6.502;2023-04-09T04:04:20;8.50;99.90
52555;DHT22;38455;52.710;6.502;2023-04-09T04:06:46;8.50;99.90
52555;DHT22;38455;52.710;6.502;2023-04-09T04:09:11;8.50;99.90
52555;DHT22;38455;52.710;6.502;2023-04-09T04:11:37;8.50;99.90
52555;DHT22;38455;52.710;6.502;2023-04-09T04:14:03;8.50;99.90
52555;DHT22;38455;52.710;6.502;2023-04-09T04:16:28;8.50;99.90
52555;DHT22;38455;52.710;6.502;2023-04-09T04:18:54;8.50;99.90
52555;DHT22;38455;52.710;6.502;2023-04-09T04:21:19;8.50;99.90
52555;DHT22;38455;52.710;6.502;2023-04-09T04:23:45;8.40;99.90
52555;DHT22;38455;52.710;6.502;2023-04-09T04:26:11;8.50;99.90
52555;DHT22;38455;52.710;6.502;2023-04-09T04:28:37;8.50;99.90
52555;DHT22;38455;52.710;6.502;2023-04-09T04:31:10;8.50;99.90
52555;DHT22;38455;52.710;6.502;2023-04-09T04:33:39;8.50;99.90
52555;DHT22;38455;52.710;6.502;2023-04-09T04:36:09;8.50;99.90
52555;DHT22;38455;52.710;6.502;2023-04-09T04:38:35;8.60;99.90
52555;DHT22;38455;52.710;6.502;2023-04-09T04:41:01;8.60;99.90
52555;DHT22;38455;52.710;6.502;2023-04-09T04:43:27;8.60;99.90
52555;DHT22;38455;52.710;6.502;2023-04-09T04:45:53;8.60;99.90
52555;DHT22;38455;52.710;6.502;2023-04-09T04:48:19;8.60;99.90
52555;DHT22;38455;52.710;6.502;2023-04-09T04:50:45;8.50;99.90
52555;DHT22;38455;52.710;6.502;2023-04-09T04:53:11;8.50;99.90
52555;DHT22;38455;52.710;6.502;2023-04-09T04:55:37;8.50;99.90
52555;DHT22;38455;52.710;6.502;2023-04-09T04:58:05;8.50;99.90
52555;DHT22;38455;52.710;6.502;2023-04-09T05:00:31;8.50;99.90
52555;DHT22;38455;52.710;6.502;2023-04-09T05:02:57;8.50;99.90
52555;DHT22;38455;52.710;6.502;2023-04-09T05:05:22;8.50;99.90
52555;DHT22;38455;52.710;6.502;2023-04-09T05:07:48;8.50;99.90
52555;DHT22;38455;52.710;6.502;2023-04-09T05:10:13;8.50;99.90
52555;DHT22;38455;52.710;6.502;2023-04-09T05:12:39;8.50;99.90
52555;DHT22;38455;52.710;6.502;2023-04-09T05:15:06;8.50;99.90
52555;DHT22;38455;52.710;6.502;2023-04-09T05:17:32;8.40;99.90
52555;DHT22;38455;52.710;6.502;2023-04-09T05:19:58;8.50;99.90
52555;DHT22;38455;52.710;6.502;2023-04-09T05:22:23;8.50;99.90
52555;DHT22;38455;52.710;6.502;2023-04-09T05:24:49;8.50;99.90
52555;DHT22;38455;52.710;6.502;2023-04-09T05:27:15;8.50;99.90
52555;DHT22;38455;52.710;6.502;2023-04-09T05:29:43;8.50;99.90
52555;DHT22;38455;52.710;6.502;2023-04-09T05:32:09;8.60;99.90
52555;DHT22;38455;52.710;6.502;2023-04-09T05:34:35;8.50;99.90
52555;DHT22;38455;52.710;6.502;2023-04-09T05:37:01;8.50;99.90
52555;DHT22;38455;52.710;6.502;2023-04-09T05:39:26;8.60;99.90
52555;DHT22;38455;52.710;6.502;2023-04-09T05:41:52;8.50;99.90
52555;DHT22;38455;52.710;6.502;2023-04-09T05:44:18;8.60;99.90
52555;DHT22;38455;52.710;6.502;2023-04-09T05:46:43;8.60;99.90
52555;DHT22;38455;52.710;6.502;2023-04-09T05:49:09;8.60;99.90
52555;DHT22;38455;52.710;6.502;2023-04-09T05:51:35;8.60;99.90
52555;DHT22;38455;52.710;6.502;2023-04-09T05:54:02;8.60;99.90
52555;DHT22;38455;52.710;6.502;2023-04-09T05:56:28;8.60;99.90
52555;DHT22;38455;52.710;6.502;2023-04-09T05:58:54;8.70;99.90
52555;DHT22;38455;52.710;6.502;2023-04-09T06:01:19;8.70;99.90
52555;DHT22;38455;52.710;6.502;2023-04-09T06:03:45;8.60;99.90
52555;DHT22;38455;52.710;6.502;2023-04-09T06:06:12;8.60;99.90
52555;DHT22;38455;52.710;6.502;2023-04-09T06:08:38;8.70;99.90
52555;DHT22;38455;52.710;6.502;2023-04-09T06:11:07;8.70;99.90
52555;DHT22;38455;52.710;6.502;2023-04-09T06:13:33;8.60;99.90
52555;DHT22;38455;52.710;6.502;2023-04-09T06:15:58;8.60;99.90
52555;DHT22;38455;52.710;6.502;2023-04-09T06:18:24;8.70;99.90
52555;DHT22;38455;52.710;6.502;2023-04-09T06:20:50;8.70;99.90
52555;DHT22;38455;52.710;6.502;2023-04-09T06:23:25;8.60;99.90
52555;DHT22;38455;52.710;6.502;2023-04-09T06:25:50;8.70;99.90
52555;DHT22;38455;52.710;6.502;2023-04-09T06:28:16;8.60;99.90
52555;DHT22;38455;52.710;6.502;2023-04-09T06:30:41;8.60;99.90
52555;DHT22;38455;52.710;6.502;2023-04-09T06:33:07;8.60;99.90
52555;DHT22;38455;52.710;6.502;2023-04-09T06:35:33;8.70;99.90
52555;DHT22;38455;52.710;6.502;2023-04-09T06:37:58;8.60;99.90
52555;DHT22;38455;52.710;6.502;2023-04-09T06:40:24;8.70;99.90
52555;DHT22;38455;52.710;6.502;2023-04-09T06:42:50;8.80;99.90
52555;DHT22;38455;52.710;6.502;2023-04-09T06:45:15;8.80;99.90
52555;DHT22;38455;52.710;6.502;2023-04-09T06:47:41;8.70;99.90
52555;DHT22;38455;52.710;6.502;2023-04-09T06:50:07;8.70;99.90
52555;DHT22;38455;52.710;6.502;2023-04-09T06:52:33;8.80;99.90
52555;DHT22;38455;52.710;6.502;2023-04-09T06:54:58;8.80;99.90
52555;DHT22;38455;52.710;6.502;2023-04-09T06:57:24;8.90;99.90
52555;DHT22;38455;52.710;6.502;2023-04-09T06:59:50;8.90;99.90
52555;DHT22;38455;52.710;6.502;2023-04-09T07:02:19;8.90;99.90
52555;DHT22;38455;52.710;6.502;2023-04-09T07:04:44;9.00;99.90
52555;DHT22;38455;52.710;6.502;2023-04-09T07:07:10;9.10;99.90
52555;DHT22;38455;52.710;6.502;2023-04-09T07:09:37;9.10;99.90
52555;DHT22;38455;52.710;6.502;2023-04-09T07:12:02;9.10;99.90
52555;DHT22;38455;52.710;6.502;2023-04-09T07:14:28;9.10;99.90
52555;DHT22;38455;52.710;6.502;2023-04-09T07:16:53;9.30;99.90
52555;DHT22;38455;52.710;6.502;2023-04-09T07:19:19;9.40;99.90
52555;DHT22;38455;52.710;6.502;2023-04-09T07:21:45;9.50;99.90
52555;DHT22;38455;52.710;6.502;2023-04-09T07:24:10;9.50;99.90
52555;DHT22;38455;52.710;6.502;2023-04-09T07:26:36;9.70;99.90
52555;DHT22;38455;52.710;6.502;2023-04-09T07:29:01;9.70;99.90
52555;DHT22;38455;52.710;6.502;2023-04-09T07:31:28;9.70;99.90
52555;DHT22;38455;52.710;6.502;2023-04-09T07:33:54;9.80;99.90
52555;DHT22;38455;52.710;6.502;2023-04-09T07:36:20;9.90;99.90
52555;DHT22;38455;52.710;6.502;2023-04-09T07:38:46;9.90;99.90
52555;DHT22;38455;52.710;6.502;2023-04-09T07:41:11;10.00;99.90
52555;DHT22;38455;52.710;6.502;2023-04-09T07:43:37;10.10;99.90
52555;DHT22;38455;52.710;6.502;2023-04-09T07:46:03;10.10;99.90
52555;DHT22;38455;52.710;6.502;2023-04-09T07:48:28;10.10;99.90
52555;DHT22;38455;52.710;6.502;2023-04-09T07:50:54;10.10;99.90
52555;DHT22;38455;52.710;6.502;2023-04-09T07:53:20;10.10;99.90
52555;DHT22;38455;52.710;6.502;2023-04-09T07:55:45;10.10;99.90
52555;DHT22;38455;52.710;6.502;2023-04-09T07:58:11;10.20;99.90
52555;DHT22;38455;52.710;6.502;2023-04-09T08:00:37;10.30;99.90
52555;DHT22;38455;52.710;6.502;2023-04-09T08:03:02;10.60;99.90
52555;DHT22;38455;52.710;6.502;2023-04-09T08:05:28;10.90;99.90
52555;DHT22;38455;52.710;6.502;2023-04-09T08:07:55;11.00;99.90
52555;DHT22;38455;52.710;6.502;2023-04-09T08:10:20;11.10;99.90
52555;DHT22;38455;52.710;6.502;2023-04-09T08:12:47;11.20;99.90
52555;DHT22;38455;52.710;6.502;2023-04-09T08:15:13;11.20;99.90
52555;DHT22;38455;52.710;6.502;2023-04-09T08:17:38;11.50;99.90
52555;DHT22;38455;52.710;6.502;2023-04-09T08:20:05;11.60;99.90
52555;DHT22;38455;52.710;6.502;2023-04-09T08:22:31;12.20;99.90
52555;DHT22;38455;52.710;6.502;2023-04-09T08:24:57;12.60;99.90
52555;DHT22;38455;52.710;6.502;2023-04-09T08:27:23;12.90;99.90
52555;DHT22;38455;52.710;6.502;2023-04-09T08:29:49;13.10;99.90
52555;DHT22;38455;52.710;6.502;2023-04-09T08:32:15;13.90;99.90
52555;DHT22;38455;52.710;6.502;2023-04-09T08:34:41;14.40;99.90
52555;DHT22;38455;52.710;6.502;2023-04-09T08:37:07;14.60;99.90
52555;DHT22;38455;52.710;6.502;2023-04-09T08:39:33;15.10;99.90
52555;DHT22;38455;52.710;6.502;2023-04-09T08:41:59;15.10;99.90
52555;DHT22;38455;52.710;6.502;2023-04-09T08:44:26;15.30;99.90
52555;DHT22;38455;52.710;6.502;2023-04-09T08:46:52;15.90;99.90
52555;DHT22;38455;52.710;6.502;2023-04-09T08:49:19;16.10;99.90
52555;DHT22;38455;52.710;6.502;2023-04-09T08:51:46;15.90;99.90
52555;DHT22;38455;52.710;6.502;2023-04-09T08:54:14;15.90;99.90
52555;DHT22;38455;52.710;6.502;2023-04-09T08:56:42;16.50;99.90
52555;DHT22;38455;52.710;6.502;2023-04-09T08:59:08;16.50;99.90
52555;DHT22;38455;52.710;6.502;2023-04-09T09:01:34;16.70;99.90
52555;DHT22;38455;52.710;6.502;2023-04-09T09:04:04;17.40;99.90
52555;DHT22;38455;52.710;6.502;2023-04-09T09:06:33;17.50;99.90
52555;DHT22;38455;52.710;6.502;2023-04-09T09:09:06;18.30;99.90
52555;DHT22;38455;52.710;6.502;2023-04-09T09:11:37;18.40;96.90
52555;DHT22;38455;52.710;6.502;2023-04-09T09:14:13;19.10;96.70
52555;DHT22;38455;52.710;6.502;2023-04-09T09:16:41;19.50;94.50
52555;DHT22;38455;52.710;6.502;2023-04-09T09:22:02;20.30;92.80
52555;DHT22;38455;52.710;6.502;2023-04-09T09:24:29;20.40;90.40
52555;DHT22;38455;52.710;6.502;2023-04-09T09:26:54;21.00;92.40
52555;DHT22;38455;52.710;6.502;2023-04-09T09:29:21;21.00;91.00
52555;DHT22;38455;52.710;6.502;2023-04-09T09:31:55;20.90;90.40
52555;DHT22;38455;52.710;6.502;2023-04-09T09:34:22;20.50;85.80
52555;DHT22;38455;52.710;6.502;2023-04-09T09:36:48;20.80;90.00
52555;DHT22;38455;52.710;6.502;2023-04-09T09:39:15;20.70;89.20
52555;DHT22;38455;52.710;6.502;2023-04-09T09:41:42;20.90;87.90
52555;DHT22;38455;52.710;6.502;2023-04-09T09:44:09;20.60;87.50
52555;DHT22;38455;52.710;6.502;2023-04-09T09:46:37;20.60;86.30
52555;DHT22;38455;52.710;6.502;2023-04-09T09:49:04;20.70;86.80
52555;DHT22;38455;52.710;6.502;2023-04-09T09:51:31;21.10;86.30
52555;DHT22;38455;52.710;6.502;2023-04-09T09:53:57;21.30;84.10
52555;DHT22;38455;52.710;6.502;2023-04-09T09:56:28;21.50;84.00
52555;DHT22;38455;52.710;6.502;2023-04-09T10:01:33;22.40;76.30
52555;DHT22;38455;52.710;6.502;2023-04-09T10:04:04;22.70;79.50
52555;DHT22;38455;52.710;6.502;2023-04-09T10:06:31;22.40;78.00
52555;DHT22;38455;52.710;6.502;2023-04-09T10:08:59;22.80;73.40
52555;DHT22;38455;52.710;6.502;2023-04-09T10:11:28;23.00;73.40
52555;DHT22;38455;52.710;6.502;2023-04-09T10:13:58;23.00;74.20
52555;DHT22;38455;52.710;6.502;2023-04-09T10:16:24;23.50;73.20
52555;DHT22;38455;52.710;6.502;2023-04-09T10:18:51;23.50;73.30
52555;DHT22;38455;52.710;6.502;2023-04-09T10:21:52;23.90;74.20
52555;DHT22;38455;52.710;6.502;2023-04-09T10:24:20;23.70;70.00
52555;DHT22;38455;52.710;6.502;2023-04-09T10:26:46;24.00;72.10
52555;DHT22;38455;52.710;6.502;2023-04-09T10:29:14;23.80;70.00
52555;DHT22;38455;52.710;6.502;2023-04-09T10:31:54;23.70;69.40
52555;DHT22;38455;52.710;6.502;2023-04-09T10:34:27;23.70;67.50
52555;DHT22;38455;52.710;6.502;2023-04-09T10:36:57;23.50;68.00
52555;DHT22;38455;52.710;6.502;2023-04-09T10:39:29;23.90;68.80
52555;DHT22;38455;52.710;6.502;2023-04-09T10:41:57;24.00;68.60
52555;DHT22;38455;52.710;6.502;2023-04-09T10:44:25;23.90;68.20
52555;DHT22;38455;52.710;6.502;2023-04-09T10:46:53;23.70;66.10
52555;DHT22;38455;52.710;6.502;2023-04-09T10:49:20;24.20;65.80
52555;DHT22;38455;52.710;6.502;2023-04-09T10:52:09;24.50;66.30
52555;DHT22;38455;52.710;6.502;2023-04-09T10:54:42;24.40;66.70
52555;DHT22;38455;52.710;6.502;2023-04-09T10:57:11;23.90;68.00
52555;DHT22;38455;52.710;6.502;2023-04-09T11:05:17;20.90;68.70
52555;DHT22;38455;52.710;6.502;2023-04-09T11:07:46;21.70;69.80
52555;DHT22;38455;52.710;6.502;2023-04-09T11:10:14;22.10;69.10
52555;DHT22;38455;52.710;6.502;2023-04-09T11:12:39;21.60;67.70
52555;DHT22;38455;52.710;6.502;2023-04-09T11:15:14;21.50;68.00
52555;DHT22;38455;52.710;6.502;2023-04-09T11:17:40;21.80;67.90
52555;DHT22;38455;52.710;6.502;2023-04-09T11:20:07;21.50;68.50
52555;DHT22;38455;52.710;6.502;2023-04-09T11:22:34;20.50;67.70
52555;DHT22;38455;52.710;6.502;2023-04-09T11:24:59;20.00;68.80
52555;DHT22;38455;52.710;6.502;2023-04-09T11:27:25;19.90;69.30
52555;DHT22;38455;52.710;6.502;2023-04-09T11:29:55;20.60;70.20
52555;DHT22;38455;52.710;6.502;2023-04-09T11:32:20;21.40;68.40
52555;DHT22;38455;52.710;6.502;2023-04-09T11:34:46;21.30;67.60
52555;DHT22;38455;52.710;6.502;2023-04-09T11:37:15;20.60;66.90
52555;DHT22;38455;52.710;6.502;2023-04-09T11:39:44;20.40;68.30
52555;DHT22;38455;52.710;6.502;2023-04-09T11:42:14;19.60;69.20
52555;DHT22;38455;52.710;6.502;2023-04-09T11:44:40;19.40;70.00
52555;DHT22;38455;52.710;6.502;2023-04-09T11:47:07;19.50;68.80
52555;DHT22;38455;52.710;6.502;2023-04-09T11:49:33;19.40;69.20
52555;DHT22;38455;52.710;6.502;2023-04-09T11:52:00;18.90;70.20
52555;DHT22;38455;52.710;6.502;2023-04-09T11:54:32;18.20;70.80
52555;DHT22;38455;52.710;6.502;2023-04-09T11:57:03;18.90;71.20
52555;DHT22;38455;52.710;6.502;2023-04-09T11:59:29;19.80;71.40
52555;DHT22;38455;52.710;6.502;2023-04-09T12:01:58;19.50;70.00
52555;DHT22;38455;52.710;6.502;2023-04-09T12:04:24;19.20;69.20
52555;DHT22;38455;52.710;6.502;2023-04-09T12:06:50;19.30;69.70
52555;DHT22;38455;52.710;6.502;2023-04-09T12:09:16;19.20;70.10
52555;DHT22;38455;52.710;6.502;2023-04-09T12:11:43;19.20;70.00
52555;DHT22;38455;52.710;6.502;2023-04-09T12:14:14;19.70;69.40
52555;DHT22;38455;52.710;6.502;2023-04-09T12:16:40;19.70;69.90
52555;DHT22;38455;52.710;6.502;2023-04-09T12:19:10;19.90;69.80
52555;DHT22;38455;52.710;6.502;2023-04-09T12:21:53;20.00;69.70
52555;DHT22;38455;52.710;6.502;2023-04-09T12:24:23;19.70;70.00
52555;DHT22;38455;52.710;6.502;2023-04-09T12:26:50;19.80;69.80
52555;DHT22;38455;52.710;6.502;2023-04-09T12:29:18;19.50;69.80
52555;DHT22;38455;52.710;6.502;2023-04-09T12:31:44;18.90;70.70
52555;DHT22;38455;52.710;6.502;2023-04-09T12:34:10;19.10;70.00
52555;DHT22;38455;52.710;6.502;2023-04-09T12:36:38;19.50;70.00
52555;DHT22;38455;52.710;6.502;2023-04-09T12:39:04;20.00;68.60
52555;DHT22;38455;52.710;6.502;2023-04-09T12:41:30;20.60;68.80
52555;DHT22;38455;52.710;6.502;2023-04-09T12:43:55;20.70;68.20
52555;DHT22;38455;52.710;6.502;2023-04-09T12:46:21;20.30;67.80
52555;DHT22;38455;52.710;6.502;2023-04-09T12:48:47;20.00;67.80
52555;DHT22;38455;52.710;6.502;2023-04-09T12:51:13;19.90;68.50
52555;DHT22;38455;52.710;6.502;2023-04-09T12:53:39;19.70;68.60
52555;DHT22;38455;52.710;6.502;2023-04-09T12:56:05;18.80;68.80
52555;DHT22;38455;52.710;6.502;2023-04-09T12:58:31;18.50;70.10
52555;DHT22;38455;52.710;6.502;2023-04-09T13:00:57;18.10;71.00
52555;DHT22;38455;52.710;6.502;2023-04-09T13:03:24;18.40;71.60
52555;DHT22;38455;52.710;6.502;2023-04-09T13:05:50;18.80;70.70
52555;DHT22;38455;52.710;6.502;2023-04-09T13:08:16;19.20;71.40
52555;DHT22;38455;52.710;6.502;2023-04-09T13:10:42;19.00;69.20
52555;DHT22;38455;52.710;6.502;2023-04-09T13:13:08;19.50;68.20
52555;DHT22;38455;52.710;6.502;2023-04-09T13:15:40;19.70;68.10
52555;DHT22;38455;52.710;6.502;2023-04-09T13:18:12;20.20;67.60
52555;DHT22;38455;52.710;6.502;2023-04-09T13:20:38;20.40;66.80
52555;DHT22;38455;52.710;6.502;2023-04-09T13:23:04;20.90;67.50
52555;DHT22;38455;52.710;6.502;2023-04-09T13:25:30;20.60;66.40
52555;DHT22;38455;52.710;6.502;2023-04-09T13:27:55;21.10;67.20
52555;DHT22;38455;52.710;6.502;2023-04-09T13:30:21;20.70;65.10
52555;DHT22;38455;52.710;6.502;2023-04-09T13:32:47;20.30;64.00
52555;DHT22;38455;52.710;6.502;2023-04-09T13:35:12;20.80;63.40
52555;DHT22;38455;52.710;6.502;2023-04-09T13:37:38;21.10;64.20
52555;DHT22;38455;52.710;6.502;2023-04-09T13:40:04;20.30;65.10
52555;DHT22;38455;52.710;6.502;2023-04-09T13:42:30;20.50;64.40
52555;DHT22;38455;52.710;6.502;2023-04-09T13:44:56;20.80;64.20
52555;DHT22;38455;52.710;6.502;2023-04-09T13:47:23;20.80;62.90
52555;DHT22;38455;52.710;6.502;2023-04-09T13:49:48;21.40;62.00
52555;DHT22;38455;52.710;6.502;2023-04-09T13:52:16;21.10;61.50
52555;DHT22;38455;52.710;6.502;2023-04-09T13:54:42;21.90;61.50
52555;DHT22;38455;52.710;6.502;2023-04-09T13:57:08;21.40;63.30
52555;DHT22;38455;52.710;6.502;2023-04-09T13:59:34;20.80;64.70
52555;DHT22;38455;52.710;6.502;2023-04-09T14:02:00;20.60;64.10
52555;DHT22;38455;52.710;6.502;2023-04-09T14:04:26;20.20;64.30
52555;DHT22;38455;52.710;6.502;2023-04-09T14:06:52;19.50;64.30
52555;DHT22;38455;52.710;6.502;2023-04-09T14:09:17;19.30;64.60
52555;DHT22;38455;52.710;6.502;2023-04-09T14:11:43;18.70;65.30
52555;DHT22;38455;52.710;6.502;2023-04-09T14:14:08;18.10;65.60
52555;DHT22;38455;52.710;6.502;2023-04-09T14:16:35;18.10;66.10
52555;DHT22;38455;52.710;6.502;2023-04-09T14:19:00;18.10;66.50
52555;DHT22;38455;52.710;6.502;2023-04-09T14:21:27;18.40;67.30
52555;DHT22;38455;52.710;6.502;2023-04-09T14:23:53;18.60;67.10
52555;DHT22;38455;52.710;6.502;2023-04-09T14:26:19;18.90;66.90
52555;DHT22;38455;52.710;6.502;2023-04-09T14:28:44;18.60;66.10
52555;DHT22;38455;52.710;6.502;2023-04-09T14:31:12;18.20;66.20
52555;DHT22;38455;52.710;6.502;2023-04-09T14:33:39;18.20;66.40
52555;DHT22;38455;52.710;6.502;2023-04-09T14:36:05;17.80;66.60
52555;DHT22;38455;52.710;6.502;2023-04-09T14:38:32;18.10;67.80
52555;DHT22;38455;52.710;6.502;2023-04-09T14:40:58;18.20;68.40
52555;DHT22;38455;52.710;6.502;2023-04-09T14:43:23;18.30;68.60
52555;DHT22;38455;52.710;6.502;2023-04-09T14:45:49;18.30;68.30
52555;DHT22;38455;52.710;6.502;2023-04-09T14:48:16;18.30;67.90
52555;DHT22;38455;52.710;6.502;2023-04-09T14:50:42;18.20;68.10
52555;DHT22;38455;52.710;6.502;2023-04-09T14:53:08;18.10;69.20
52555;DHT22;38455;52.710;6.502;2023-04-09T14:55:34;18.10;69.20
52555;DHT22;38455;52.710;6.502;2023-04-09T14:58:00;18.00;68.10
52555;DHT22;38455;52.710;6.502;2023-04-09T15:00:28;18.00;69.40
52555;DHT22;38455;52.710;6.502;2023-04-09T15:02:54;18.00;69.90
52555;DHT22;38455;52.710;6.502;2023-04-09T15:05:20;17.80;69.00
52555;DHT22;38455;52.710;6.502;2023-04-09T15:07:46;17.60;67.70
52555;DHT22;38455;52.710;6.502;2023-04-09T15:10:12;17.40;67.50
52555;DHT22;38455;52.710;6.502;2023-04-09T15:12:38;17.40;68.60
52555;DHT22;38455;52.710;6.502;2023-04-09T15:15:07;17.20;69.00
52555;DHT22;38455;52.710;6.502;2023-04-09T15:17:33;17.00;68.70
52555;DHT22;38455;52.710;6.502;2023-04-09T15:19:59;17.00;69.20
52555;DHT22;38455;52.710;6.502;2023-04-09T15:22:25;17.00;69.80
52555;DHT22;38455;52.710;6.502;2023-04-09T15:24:50;17.00;69.60
52555;DHT22;38455;52.710;6.502;2023-04-09T15:27:16;16.90;68.90
52555;DHT22;38455;52.710;6.502;2023-04-09T15:29:42;16.90;70.50
52555;DHT22;38455;52.710;6.502;2023-04-09T15:32:08;16.90;70.10
52555;DHT22;38455;52.710;6.502;2023-04-09T15:34:34;16.70;68.90
52555;DHT22;38455;52.710;6.502;2023-04-09T15:36:59;16.80;69.90
52555;DHT22;38455;52.710;6.502;2023-04-09T15:39:25;16.80;70.10
52555;DHT22;38455;52.710;6.502;2023-04-09T15:41:53;16.80;71.40
52555;DHT22;38455;52.710;6.502;2023-04-09T15:44:20;16.70;70.60
52555;DHT22;38455;52.710;6.502;2023-04-09T15:46:46;16.80;70.60
52555;DHT22;38455;52.710;6.502;2023-04-09T15:49:12;16.60;70.60
52555;DHT22;38455;52.710;6.502;2023-04-09T15:51:37;16.50;70.90
52555;DHT22;38455;52.710;6.502;2023-04-09T15:54:03;16.50;70.90
52555;DHT22;38455;52.710;6.502;2023-04-09T15:56:29;16.30;69.80